Time;durP1;ratioP1;P1;durP2;ratioP2;P2;SDS_P1;SDS_P2;PMS_P1;PMS_P2;Temp;Humidity;BMP_temperature;BMP_pressure;BME280_temperature;BME280_humidity;BME280_pressure;Samples;Min_cycle;Max_cycle;Signal;HPM_P1;HPM_P2
2022/12/22 03:25:53;;;;;;;47.03;26.65;;;8.80;99.90;;;;;;5073472;28;20049;-73
2022/12/22 03:28:27;;;;;;;45.75;25.63;;;8.80;99.90;;;;;;5055473;28;20052;-73
2022/12/22 03:31:00;;;;;;;47.47;25.90;;;8.80;99.90;;;;;;5073629;28;20375;-73
2022/12/22 03:33:27;;;;;;;;;;;8.90;99.90;;;;;;5056016;28;20386;-73
2022/12/22 03:35:52;;;;;;;48.13;25.73;;;8.90;99.90;;;;;;5055812;28;19917;-73
2022/12/22 03:38:18;;;;;;;40.70;23.55;;;8.80;99.90;;;;;;5072991;28;20555;-73
2022/12/22 03:40:43;;;;;;;49.80;26.92;;;8.80;99.90;;;;;;5055421;28;20445;-73
2022/12/22 03:49:08;;;;;;;46.22;23.95;;;8.90;99.90;;;;;;5055336;28;20475;-73
2022/12/22 03:51:35;;;;;;;42.70;24.10;;;8.80;99.90;;;;;;5055443;28;20075;-73
2022/12/22 03:54:01;;;;;;;43.92;22.20;;;8.90;99.90;;;;;;5073126;28;20547;-73
2022/12/22 03:56:27;;;;;;;53.78;26.58;;;8.80;99.90;;;;;;5055169;28;20135;-73
2022/12/22 03:58:52;;;;;;;45.17;25.08;;;8.80;99.90;;;;;;5055002;28;20033;-73
2022/12/22 04:01:18;;;;;;;40.70;22.88;;;8.80;99.90;;;;;;5054236;28;20079;-73
2022/12/22 04:03:43;;;;;;;45.88;24.30;;;8.80;99.90;;;;;;5053697;28;20174;-73
2022/12/22 04:06:09;;;;;;;38.38;22.70;;;8.90;99.90;;;;;;5072422;28;20041;-73
2022/12/22 04:08:35;;;;;;;40.03;23.60;;;8.90;99.90;;;;;;5054706;28;20041;-73
2022/12/22 04:13:44;;;;;;;44.25;22.45;;;8.90;99.90;;;;;;5054445;28;20041;-73
2022/12/22 04:16:10;;;;;;;43.45;24.17;;;8.70;99.90;;;;;;5072689;28;20037;-73
2022/12/22 04:18:35;;;;;;;34.13;19.90;;;8.80;99.90;;;;;;5054619;28;20035;-73
2022/12/22 04:21:01;;;;;;;36.17;20.55;;;8.80;99.90;;;;;;5072619;28;20040;-73
2022/12/22 04:23:27;;;;;;;35.65;21.27;;;8.80;99.90;;;;;;5054222;28;20039;-73
2022/12/22 04:25:52;;;;;;;36.53;20.67;;;8.80;99.90;;;;;;5072484;28;20494;-73
2022/12/22 04:28:18;;;;;;;37.63;20.73;;;8.90;99.90;;;;;;5054346;28;20052;-73
2022/12/22 04:30:43;;;;;;;37.85;19.08;;;8.90;99.90;;;;;;5072006;28;20076;-73
2022/12/22 04:33:09;;;;;;;32.22;19.75;;;8.90;99.90;;;;;;5054283;28;20051;-73
2022/12/22 04:35:35;;;;;;;35.75;21.13;;;8.90;99.90;;;;;;5072288;28;20036;-73
2022/12/22 04:38:00;;;;;;;35.35;20.65;;;8.80;99.90;;;;;;5054162;28;20044;-75
2022/12/22 04:40:26;;;;;;;33.08;19.85;;;8.90;99.90;;;;;;5072139;28;20127;-75
2022/12/22 04:42:51;;;;;;;30.90;18.88;;;9.00;99.90;;;;;;5053945;28;20469;-75
2022/12/22 04:45:17;;;;;;;32.22;19.25;;;8.90;99.90;;;;;;5072293;28;20044;-74
2022/12/22 04:47:42;;;;;;;34.55;20.52;;;8.90;99.90;;;;;;5072133;28;20526;-75
2022/12/22 04:50:08;;;;;;;42.60;24.10;;;8.90;99.90;;;;;;5053842;28;20383;-75
2022/12/22 04:52:33;;;;;;;34.78;22.13;;;8.80;99.90;;;;;;5054096;28;20098;-74
2022/12/22 04:54:59;;;;;;;37.45;23.95;;;9.00;99.90;;;;;;5054165;28;20037;-75
2022/12/22 04:57:24;;;;;;;43.10;23.45;;;9.00;99.90;;;;;;5071715;28;20036;-75
2022/12/22 04:59:50;;;;;;;40.22;22.75;;;8.80;99.90;;;;;;5054071;28;20036;-75
2022/12/22 05:02:15;;;;;;;36.92;20.88;;;8.90;99.90;;;;;;5054045;28;20498;-75
2022/12/22 05:04:41;;;;;;;39.88;22.92;;;8.90;99.90;;;;;;5071745;28;20109;-75
2022/12/22 05:07:06;;;;;;;42.42;23.92;;;9.00;99.90;;;;;;5071870;28;20040;-75
2022/12/22 05:09:32;;;;;;;44.72;24.27;;;8.90;99.90;;;;;;5053809;28;20502;-75
2022/12/22 05:11:58;;;;;;;43.70;25.45;;;8.80;99.90;;;;;;5053629;28;20070;-75
2022/12/22 05:14:24;;;;;;;52.97;26.13;;;8.90;99.90;;;;;;5071614;28;20051;-75
2022/12/22 05:16:50;;;;;;;48.33;25.50;;;8.90;99.90;;;;;;5071774;28;20498;-75
2022/12/22 05:19:15;;;;;;;51.47;26.63;;;8.80;99.90;;;;;;5053413;28;20071;-75
2022/12/22 05:21:41;;;;;;;54.28;28.80;;;8.90;99.90;;;;;;5071766;28;20093;-75
2022/12/22 05:24:06;;;;;;;60.00;30.75;;;8.80;99.90;;;;;;5053641;28;20185;-75
2022/12/22 05:26:32;;;;;;;60.70;30.27;;;8.90;99.90;;;;;;5071601;28;20078;-76
2022/12/22 05:28:58;;;;;;;59.30;29.40;;;8.80;99.90;;;;;;5071616;28;20032;-75
2022/12/22 05:31:24;;;;;;;64.72;29.92;;;8.90;99.90;;;;;;5071613;28;20388;-75
2022/12/22 05:33:50;;;;;;;68.22;30.05;;;8.90;99.90;;;;;;5071227;28;20045;-75
2022/12/22 05:36:16;;;;;;;63.08;30.73;;;8.90;99.90;;;;;;5053534;28;20033;-75
2022/12/22 05:38:45;;;;;;;69.60;29.83;;;8.90;99.90;;;;;;5053258;28;20119;-75
2022/12/22 05:41:11;;;;;;;75.22;31.08;;;8.80;99.90;;;;;;5053601;28;20166;-75
2022/12/22 05:43:37;;;;;;;71.97;31.40;;;8.90;99.90;;;;;;5075153;28;20037;-75
2022/12/22 05:46:04;;;;;;;80.10;33.97;;;8.80;99.90;;;;;;5057484;28;20033;-75
2022/12/22 05:48:30;;;;;;;76.07;31.80;;;8.80;99.90;;;;;;5057183;28;20044;-75
2022/12/22 05:50:55;;;;;;;75.25;32.63;;;8.80;99.90;;;;;;5057478;28;20037;-75
2022/12/22 05:53:21;;;;;;;86.15;35.50;;;8.80;99.90;;;;;;5057166;28;20110;-75
2022/12/22 05:55:47;;;;;;;90.95;34.90;;;8.80;99.90;;;;;;5057353;28;20527;-75
2022/12/22 05:58:12;;;;;;;88.22;35.40;;;8.80;99.90;;;;;;5057371;28;20124;-75
2022/12/22 06:00:38;;;;;;;93.45;36.00;;;8.80;99.90;;;;;;5057474;28;20044;-75
2022/12/22 06:03:03;;;;;;;84.70;34.05;;;8.70;99.90;;;;;;5074888;28;20036;-76
2022/12/22 06:05:29;;;;;;;84.15;34.30;;;8.70;99.90;;;;;;5057263;28;20049;-75
2022/12/22 06:07:54;;;;;;;91.47;34.45;;;8.70;99.90;;;;;;5075122;28;20406;-75
2022/12/22 06:10:20;;;;;;;81.05;34.08;;;8.70;99.90;;;;;;5056892;28;20120;-75
2022/12/22 06:12:45;;;;;;;84.47;34.42;;;8.70;99.90;;;;;;5056917;28;20047;-76
2022/12/22 06:15:13;;;;;;;91.53;33.05;;;8.60;99.90;;;;;;5057123;28;20494;-75
2022/12/22 06:17:39;;;;;;;91.25;32.88;;;8.70;99.90;;;;;;5056808;28;20047;-75
2022/12/22 06:20:06;;;;;;;78.43;31.48;;;8.60;99.90;;;;;;5057024;28;20036;-75
2022/12/22 06:22:32;;;;;;;84.03;33.35;;;8.60;99.90;;;;;;5056501;28;20055;-75
2022/12/22 06:24:58;;;;;;;91.63;34.85;;;8.60;99.90;;;;;;5074665;28;20068;-75
2022/12/22 06:27:24;;;;;;;71.28;31.75;;;8.60;99.90;;;;;;5056724;28;20079;-75
2022/12/22 06:29:49;;;;;;;88.18;32.80;;;8.60;99.90;;;;;;5056635;28;20040;-75
2022/12/22 06:32:15;;;;;;;67.13;29.70;;;8.50;99.90;;;;;;5074596;28;20040;-75
2022/12/22 06:34:40;;;;;;;87.47;33.45;;;8.60;99.90;;;;;;5039951;28;20417;-74
2022/12/22 06:37:06;;;;;;;76.50;29.95;;;8.60;99.90;;;;;;5056557;28;20035;-75
2022/12/22 06:39:31;;;;;;;72.15;28.50;;;8.40;99.90;;;;;;5074309;28;20120;-75
2022/12/22 06:44:41;;;;;;;63.08;26.92;;;8.40;99.90;;;;;;5055475;28;20553;-75
2022/12/22 06:47:06;;;;;;;60.95;25.45;;;8.40;99.90;;;;;;5056328;28;20127;-75
2022/12/22 06:49:32;;;;;;;56.65;25.05;;;8.20;99.90;;;;;;5056380;28;20090;-75
2022/12/22 06:51:58;;;;;;;56.42;25.08;;;8.10;99.90;;;;;;5074186;28;20170;-75
2022/12/22 06:54:24;;;;;;;49.72;23.20;;;8.20;99.90;;;;;;5073550;28;20032;-75
2022/12/22 06:56:49;;;;;;;56.25;24.67;;;8.10;99.90;;;;;;5074381;28;20035;-75
2022/12/22 06:59:15;;;;;;;55.03;26.65;;;8.00;99.90;;;;;;5074119;28;20037;-75
2022/12/22 07:01:41;;;;;;;49.60;23.85;;;8.00;99.90;;;;;;5074073;28;20040;-75
2022/12/22 07:04:08;;;;;;;56.83;25.08;;;8.00;99.90;;;;;;5056081;28;20036;-75
2022/12/22 07:06:33;;;;;;;51.47;22.88;;;7.80;99.90;;;;;;5039429;28;20090;-75
2022/12/22 07:09:00;;;;;;;49.00;23.67;;;7.90;99.90;;;;;;5074120;28;20452;-77
2022/12/22 07:11:25;;;;;;;51.60;22.55;;;7.80;99.90;;;;;;5074110;28;20095;-76
2022/12/22 07:13:51;;;;;;;44.92;23.77;;;7.80;99.90;;;;;;5073820;28;20518;-77
2022/12/22 07:16:17;;;;;;;50.85;22.00;;;7.70;99.90;;;;;;5055882;28;20150;-76
2022/12/22 07:18:42;;;;;;;52.35;23.95;;;7.60;99.90;;;;;;5055161;28;20040;-76
2022/12/22 07:21:11;;;;;;;53.85;23.15;;;7.70;99.90;;;;;;5055620;28;20113;-76
2022/12/22 07:23:38;;;;;;;50.70;23.70;;;7.60;99.90;;;;;;5073571;28;20395;-75
2022/12/22 07:26:04;;;;;;;46.90;23.42;;;7.60;99.90;;;;;;5055954;28;20043;-74
2022/12/22 07:28:35;;;;;;;49.78;22.98;;;7.60;99.90;;;;;;5054624;28;20032;-74
2022/12/22 07:31:01;;;;;;;49.15;23.23;;;7.60;99.90;;;;;;5073547;28;20043;-74
2022/12/22 07:33:27;;;;;;;44.38;21.30;;;7.50;99.90;;;;;;5073328;28;20042;-74
2022/12/22 07:36:09;;;;;;;46.53;22.27;;;7.40;99.90;;;;;;5055600;28;20033;-74
2022/12/22 07:38:36;;;;;;;46.70;21.85;;;7.40;99.90;;;;;;5073259;28;20050;-74
2022/12/22 07:41:02;;;;;;;68.70;26.60;;;7.20;99.90;;;;;;5055830;28;20397;-74
2022/12/22 07:43:28;;;;;;;70.55;27.35;;;7.40;99.90;;;;;;5055195;28;20144;-74
2022/12/22 07:45:53;;;;;;;70.10;27.75;;;7.50;99.90;;;;;;5055466;28;20131;-74
2022/12/22 07:51:05;;;;;;;68.10;25.02;;;7.40;99.90;;;;;;5055323;28;20106;-74
2022/12/22 07:53:32;;;;;;;77.75;29.58;;;7.50;99.90;;;;;;5054930;28;20485;-74
2022/12/22 07:56:01;;;;;;;74.10;27.52;;;7.40;99.90;;;;;;5055373;28;20596;-74
2022/12/22 07:58:27;;;;;;;65.53;26.98;;;7.50;99.90;;;;;;5055173;28;20032;-74
2022/12/22 08:00:57;;;;;;;69.82;26.20;;;7.50;99.90;;;;;;5055406;28;20520;-74
2022/12/22 08:03:23;;;;;;;59.25;24.35;;;7.40;99.90;;;;;;5054752;28;20048;-74
2022/12/22 08:05:48;;;;;;;58.60;23.67;;;7.40;99.90;;;;;;5054264;28;20055;-74
2022/12/22 08:08:14;;;;;;;55.97;21.90;;;7.30;99.90;;;;;;5054955;28;20041;-74
2022/12/22 08:10:39;;;;;;;66.68;24.70;;;7.30;99.90;;;;;;5054900;28;20036;-74
2022/12/22 08:13:05;;;;;;;56.22;24.20;;;7.30;99.90;;;;;;5054565;28;20123;-75
2022/12/22 08:15:30;;;;;;;67.50;24.60;;;7.30;99.90;;;;;;5054529;28;20093;-74
2022/12/22 08:17:56;;;;;;;68.68;24.23;;;7.20;99.90;;;;;;5038214;28;20045;-74
2022/12/22 08:20:21;;;;;;;59.38;24.30;;;7.20;99.90;;;;;;5054892;28;20037;-74
2022/12/22 08:22:47;;;;;;;61.95;22.08;;;7.10;99.90;;;;;;5037819;28;20502;-74
2022/12/22 08:25:12;;;;;;;52.60;22.33;;;7.10;99.90;;;;;;5054981;28;20127;-74
2022/12/22 08:27:48;;;;;;;52.30;21.58;;;7.10;99.90;;;;;;5054536;28;20043;-74
2022/12/22 08:30:13;;;;;;;54.80;21.75;;;7.00;99.90;;;;;;5054443;28;20098;-74
2022/12/22 08:32:40;;;;;;;55.47;23.13;;;7.00;99.90;;;;;;5054202;28;20494;-74
2022/12/22 08:35:09;;;;;;;56.35;23.23;;;6.90;99.90;;;;;;5072537;28;20112;-74
2022/12/22 08:37:40;;;;;;;58.25;22.27;;;6.90;99.90;;;;;;5054164;28;20048;-74
2022/12/22 08:40:11;;;;;;;58.03;22.73;;;7.00;99.90;;;;;;5072339;28;20079;-74
2022/12/22 08:42:38;;;;;;;54.40;19.60;;;7.10;99.90;;;;;;5071865;28;20040;-74
2022/12/22 08:45:08;;;;;;;55.35;20.02;;;7.10;99.90;;;;;;5072375;28;20041;-74
2022/12/22 08:47:33;;;;;;;49.45;21.25;;;7.00;99.90;;;;;;5072281;28;20074;-74
2022/12/22 08:49:59;;;;;;;56.65;19.23;;;7.00;99.90;;;;;;5054257;28;20044;-73
2022/12/22 08:52:24;;;;;;;45.30;19.23;;;7.00;99.90;;;;;;5053929;28;20497;-74
2022/12/22 08:54:50;;;;;;;56.28;21.63;;;7.10;99.90;;;;;;5071884;28;20071;-74
2022/12/22 08:57:15;;;;;;;52.85;20.67;;;7.10;99.90;;;;;;5072082;28;20036;-73
2022/12/22 08:59:41;;;;;;;57.90;20.33;;;7.00;99.90;;;;;;5071855;28;20052;-74
2022/12/22 09:02:07;;;;;;;53.25;20.00;;;6.90;99.90;;;;;;5071767;28;20047;-73
2022/12/22 09:04:33;;;;;;;55.72;20.55;;;7.10;99.90;;;;;;5071750;28;20087;-74
2022/12/22 09:07:01;;;;;;;51.38;19.83;;;7.00;99.90;;;;;;5071923;28;20048;-74
2022/12/22 09:09:29;;;;;;;50.58;19.08;;;6.90;99.90;;;;;;5071646;28;20163;-73
2022/12/22 09:11:54;;;;;;;55.15;19.55;;;7.00;99.90;;;;;;5072015;28;20036;-73
2022/12/22 09:14:20;;;;;;;53.40;18.58;;;6.90;99.90;;;;;;5071674;28;20037;-73
2022/12/22 09:16:46;;;;;;;57.92;19.73;;;7.00;99.90;;;;;;5071514;28;20033;-74
2022/12/22 09:19:11;;;;;;;60.75;18.55;;;6.90;99.90;;;;;;5071624;28;20040;-74
2022/12/22 09:21:37;;;;;;;54.25;18.52;;;6.90;99.90;;;;;;5053614;28;20037;-74
2022/12/22 09:24:06;;;;;;;60.50;21.23;;;6.90;99.90;;;;;;5071286;28;20032;-73
2022/12/22 09:26:32;;;;;;;60.55;19.45;;;6.90;99.90;;;;;;5071879;28;20070;-74
2022/12/22 09:28:58;;;;;;;58.20;20.75;;;6.90;99.90;;;;;;5053404;28;20048;-74
2022/12/22 09:31:25;;;;;;;57.72;21.08;;;7.10;99.90;;;;;;5071451;28;20119;-73
2022/12/22 09:33:51;;;;;;;55.28;20.10;;;7.00;99.90;;;;;;5053079;28;20040;-73
2022/12/22 09:36:20;;;;;;;64.53;21.25;;;6.90;99.90;;;;;;5053541;28;20068;-73
2022/12/22 09:38:46;;;;;;;61.20;20.40;;;7.10;99.90;;;;;;5053277;28;20174;-73
2022/12/22 09:41:18;;;;;;;56.90;18.65;;;7.10;99.90;;;;;;5053526;28;20112;-73
2022/12/22 09:43:44;;;;;;;58.72;20.67;;;7.00;99.90;;;;;;5052885;28;20072;-73
2022/12/22 09:46:23;;;;;;;58.28;18.25;;;7.10;99.90;;;;;;5053349;28;20079;-73
2022/12/22 09:48:50;;;;;;;49.05;18.30;;;7.10;99.90;;;;;;5053684;28;20120;-73
2022/12/22 09:51:17;;;;;;;57.65;20.80;;;7.10;99.90;;;;;;5053274;28;20410;-73
2022/12/22 09:53:45;;;;;;;56.42;19.98;;;7.20;99.90;;;;;;5053452;28;20044;-73
2022/12/22 09:56:15;;;;;;;54.72;19.75;;;7.10;99.90;;;;;;5071368;28;20036;-73
2022/12/22 09:58:42;;;;;;;52.72;19.10;;;7.10;99.90;;;;;;5066535;28;20039;-73
2022/12/22 10:01:23;;;;;;;43.30;16.98;;;7.20;99.90;;;;;;5052211;28;20502;-73
2022/12/22 10:04:15;;;;;;;44.22;18.00;;;7.10;99.90;;;;;;5070813;28;20052;-73
2022/12/22 10:07:05;;;;;;;46.58;17.95;;;7.20;99.90;;;;;;5071394;28;20102;-74
2022/12/22 10:09:31;;;;;;;41.42;16.10;;;7.10;99.90;;;;;;5052802;28;20110;-73
2022/12/22 10:12:02;;;;;;;39.53;16.45;;;7.10;99.90;;;;;;5052920;28;20095;-73
2022/12/22 10:14:37;;;;;;;32.67;15.35;;;7.20;99.90;;;;;;5052556;28;20043;-73
2022/12/22 10:17:16;;;;;;;27.85;11.45;;;7.20;99.90;;;;;;5052873;28;20037;-73
2022/12/22 10:19:42;;;;;;;30.67;11.70;;;7.30;99.90;;;;;;5052794;28;20048;-73
2022/12/22 10:22:26;;;;;;;29.85;12.88;;;7.20;99.90;;;;;;5036367;28;20044;-73
2022/12/22 10:24:52;;;;;;;25.63;11.55;;;7.20;99.90;;;;;;5036193;28;20076;-73
2022/12/22 10:27:19;;;;;;;25.48;11.52;;;7.30;99.90;;;;;;5071036;28;20079;-73
2022/12/22 10:29:45;;;;;;;24.45;10.27;;;7.30;99.90;;;;;;5054676;28;20052;-74
2022/12/22 10:32:17;;;;;;;28.92;11.05;;;7.30;99.90;;;;;;5074720;28;20406;-74
2022/12/22 10:34:58;;;;;;;25.85;11.07;;;7.40;99.90;;;;;;5056533;28;20068;-73
2022/12/22 10:37:50;;;;;;;28.05;12.32;;;7.40;99.90;;;;;;5056522;28;20453;-73
2022/12/22 10:40:19;;;;;;;31.00;11.98;;;7.40;99.90;;;;;;5069835;28;20049;-73
2022/12/22 10:42:48;;;;;;;24.60;11.10;;;7.40;99.90;;;;;;5056184;28;20502;-73
2022/12/22 10:45:21;;;;;;;22.38;10.95;;;7.50;99.90;;;;;;5056579;28;20074;-73
2022/12/22 10:47:50;;;;;;;25.17;10.43;;;7.40;99.90;;;;;;5056308;28;20044;-73
2022/12/22 10:50:16;;;;;;;26.73;12.15;;;7.60;99.90;;;;;;5056418;28;20139;-73
2022/12/22 10:52:53;;;;;;;25.83;11.90;;;7.60;99.90;;;;;;5056546;28;20037;-74
2022/12/22 10:55:24;;;;;;;23.38;10.57;;;7.60;99.90;;;;;;5056778;28;20383;-73
2022/12/22 10:57:51;;;;;;;24.67;10.07;;;7.70;99.90;;;;;;5056282;28;20115;-74
2022/12/22 11:00:24;;;;;;;22.85;10.30;;;7.70;99.90;;;;;;5056291;28;20047;-73
2022/12/22 11:02:51;;;;;;;;;;;7.70;99.90;;;;;;5056557;28;20051;-73
2022/12/22 11:05:17;;;;;;;22.10;9.95;;;7.70;99.90;;;;;;5056185;28;20424;-73
2022/12/22 11:07:45;;;;;;;25.13;11.50;;;7.70;99.90;;;;;;5056224;28;20044;-73
2022/12/22 11:10:17;;;;;;;23.70;10.13;;;7.80;99.90;;;;;;5055818;28;20126;-73
2022/12/22 11:13:03;;;;;;;21.00;9.75;;;7.70;99.90;;;;;;5073592;28;20048;-73
2022/12/22 11:15:46;;;;;;;23.30;10.50;;;7.70;99.90;;;;;;5056323;28;20040;-73
2022/12/22 11:18:47;;;;;;;20.02;9.85;;;7.80;99.90;;;;;;5056095;28;20044;-73
2022/12/22 11:21:44;;;;;;;23.92;10.38;;;7.70;99.90;;;;;;5055949;28;20040;-73
2022/12/22 11:24:14;;;;;;;22.77;9.63;;;7.60;99.90;;;;;;5031969;28;20520;-73
2022/12/22 11:26:53;;;;;;;23.30;9.30;;;7.80;99.90;;;;;;5055680;28;20051;-73
2022/12/22 11:29:31;;;;;;;21.63;10.13;;;7.70;99.90;;;;;;5038986;28;20054;-73
2022/12/22 11:32:36;;;;;;;18.90;9.55;;;7.70;99.90;;;;;;5055730;28;20036;-73
2022/12/22 11:35:21;;;;;;;22.92;10.70;;;7.80;99.90;;;;;;5055579;28;20032;-73
2022/12/22 11:37:49;;;;;;;17.30;9.05;;;7.80;99.90;;;;;;5040591;28;20043;-75
2022/12/22 11:40:42;;;;;;;14.95;8.98;;;7.80;99.90;;;;;;5056482;28;20501;-80
2022/12/22 11:43:36;;;;;;;24.27;10.80;;;8.10;99.90;;;;;;5060467;28;20116;-81
2022/12/22 11:46:28;;;;;;;18.73;9.32;;;8.20;99.90;;;;;;5061323;28;20610;-81
2022/12/22 11:49:03;;;;;;;15.55;8.65;;;8.40;99.90;;;;;;5058070;28;20047;-80
2022/12/22 11:51:49;;;;;;;20.23;8.60;;;8.40;99.90;;;;;;5060746;28;20047;-81
2022/12/22 11:54:39;;;;;;;18.95;7.88;;;8.60;99.90;;;;;;5083171;28;20036;-80
2022/12/22 11:57:26;;;;;;;15.93;8.27;;;8.60;99.90;;;;;;5089999;28;20089;-80
2022/12/22 11:59:57;;;;;;;18.90;7.50;;;8.60;99.90;;;;;;5074783;28;20094;-81
2022/12/22 12:02:55;;;;;;;23.20;8.07;;;8.70;99.90;;;;;;5083772;28;20050;-81
2022/12/22 12:05:43;;;;;;;23.63;8.77;;;8.70;99.90;;;;;;5082213;28;20036;-81
2022/12/22 12:08:39;;;;;;;14.88;6.55;;;8.80;99.90;;;;;;5083580;28;20050;-80
2022/12/22 12:11:40;;;;;;;19.40;7.78;;;8.80;99.90;;;;;;5084412;28;20047;-83
2022/12/22 12:14:12;;;;;;;12.73;6.45;;;8.90;99.90;;;;;;5043882;28;20044;-84
2022/12/22 12:16:53;;;;;;;14.32;7.07;;;9.00;99.90;;;;;;5110165;28;20512;-84
2022/12/22 12:19:30;;;;;;;16.20;7.22;;;9.10;99.90;;;;;;5090333;28;20066;-83
2022/12/22 12:21:58;;;;;;;15.55;7.20;;;9.00;99.90;;;;;;5089957;28;20050;-81
2022/12/22 12:24:33;;;;;;;14.00;6.13;;;9.10;99.90;;;;;;5068435;28;20041;-82
2022/12/22 12:27:16;;;;;;;16.35;6.93;;;9.00;99.90;;;;;;5064973;28;20090;-81
2022/12/22 12:29:46;;;;;;;;;;;8.90;99.90;;;;;;5054463;28;20093;-82
2022/12/22 12:32:20;;;;;;;16.05;6.28;;;8.90;99.90;;;;;;5069799;28;19917;-83
2022/12/22 12:34:50;;;;;;;14.05;5.75;;;8.90;99.90;;;;;;5072647;28;20037;-83
2022/12/22 12:37:31;;;;;;;10.00;4.88;;;8.90;99.90;;;;;;5067028;28;20043;-84
2022/12/22 12:39:57;;;;;;;16.45;6.57;;;8.80;99.90;;;;;;5054917;28;20040;-84
2022/12/22 12:42:39;;;;;;;19.40;6.85;;;8.80;99.90;;;;;;5067046;28;20066;-82
2022/12/22 12:45:40;;;;;;;12.63;5.20;;;8.80;99.90;;;;;;5071333;28;20041;-82
2022/12/22 12:48:22;;;;;;;13.30;5.07;;;8.90;99.90;;;;;;5088198;28;20119;-82
2022/12/22 12:50:52;;;;;;;11.23;5.03;;;8.90;99.90;;;;;;5053692;28;20072;-82
2022/12/22 12:53:20;;;;;;;12.98;5.47;;;8.80;99.90;;;;;;5052830;28;20063;-82
2022/12/22 12:55:48;;;;;;;16.60;5.30;;;8.90;99.90;;;;;;5073733;28;20095;-84
2022/12/22 12:58:34;;;;;;;18.27;6.00;;;8.80;99.90;;;;;;5073195;28;20029;-83
2022/12/22 13:01:00;;;;;;;12.95;5.72;;;8.80;99.90;;;;;;5064682;28;20040;-79
2022/12/22 13:03:26;;;;;;;14.05;5.18;;;8.70;99.90;;;;;;5066562;28;20032;-81
2022/12/22 13:06:00;;;;;;;15.93;5.43;;;8.90;99.90;;;;;;5067185;28;20047;-82
2022/12/22 13:08:31;;;;;;;12.85;6.30;;;8.70;99.90;;;;;;5067733;28;20036;-81
2022/12/22 13:10:56;;;;;;;15.50;5.45;;;8.80;99.90;;;;;;5050843;28;20123;-81
2022/12/22 13:13:22;;;;;;;20.23;6.53;;;8.80;99.90;;;;;;5051194;28;20448;-82
2022/12/22 13:16:06;;;;;;;14.38;4.97;;;8.70;99.90;;;;;;5070460;28;20040;-80
2022/12/22 13:18:40;;;;;;;10.45;4.28;;;8.90;99.90;;;;;;5073190;28;20042;-80
2022/12/22 13:21:06;;;;;;;17.33;5.88;;;8.70;99.90;;;;;;5045464;28;20048;-81
2022/12/22 13:23:36;;;;;;;16.15;5.45;;;8.80;99.90;;;;;;5059326;28;20168;-74
2022/12/22 13:26:05;;;;;;;13.57;5.75;;;8.90;99.90;;;;;;5037070;28;20410;-73
2022/12/22 13:28:31;;;;;;;19.48;4.90;;;8.80;99.90;;;;;;5036983;28;20552;-73
2022/12/22 13:31:22;;;;;;;14.25;4.70;;;8.80;99.90;;;;;;5071507;28;20040;-74
2022/12/22 13:34:11;;;;;;;14.43;4.90;;;8.70;99.90;;;;;;5039629;28;20458;-74
2022/12/22 13:36:36;;;;;;;13.30;4.57;;;8.70;99.90;;;;;;5013572;28;20502;-74
2022/12/22 13:39:12;;;;;;;11.85;4.57;;;8.80;99.90;;;;;;5037213;28;20142;-74
2022/12/22 13:41:40;;;;;;;12.52;5.15;;;8.80;99.90;;;;;;5053410;28;20091;-74
2022/12/22 13:44:12;;;;;;;16.35;4.40;;;8.80;99.90;;;;;;5071185;28;20049;-73
2022/12/22 13:46:38;;;;;;;11.63;4.70;;;8.90;99.90;;;;;;5053462;28;20113;-74
2022/12/22 13:49:07;;;;;;;11.55;4.40;;;8.90;99.90;;;;;;5053416;28;20433;-74
2022/12/22 13:51:37;;;;;;;16.95;5.50;;;8.70;99.90;;;;;;5053309;28;20049;-74
2022/12/22 13:54:15;;;;;;;13.13;5.57;;;8.80;99.90;;;;;;5053111;28;20078;-73
2022/12/22 13:56:46;;;;;;;10.88;4.68;;;8.90;99.90;;;;;;5053552;28;20036;-73
2022/12/22 13:59:34;;;;;;;10.57;4.75;;;8.90;99.90;;;;;;5053426;28;20087;-73
2022/12/22 14:02:14;;;;;;;11.77;4.60;;;8.70;99.90;;;;;;5053403;28;20514;-75
2022/12/22 14:04:42;;;;;;;12.73;5.25;;;8.80;99.90;;;;;;5055212;28;20094;-74
2022/12/22 14:07:17;;;;;;;14.05;5.00;;;8.80;99.90;;;;;;5057210;28;20494;-74
2022/12/22 14:09:55;;;;;;;12.32;5.90;;;8.80;99.90;;;;;;5057161;28;20402;-74
2022/12/22 14:12:23;;;;;;;15.57;5.00;;;8.90;99.90;;;;;;5075063;28;20036;-73
2022/12/22 14:14:50;;;;;;;14.25;5.13;;;8.80;99.90;;;;;;5057119;28;20051;-74
2022/12/22 14:17:27;;;;;;;15.10;5.25;;;8.80;99.90;;;;;;5057043;28;20533;-74
2022/12/22 14:19:55;;;;;;;11.80;5.68;;;8.80;99.90;;;;;;5057205;28;20397;-74
2022/12/22 14:22:33;;;;;;;17.50;6.45;;;8.90;99.90;;;;;;5074715;28;20044;-74
2022/12/22 14:25:08;;;;;;;15.02;5.43;;;8.70;99.90;;;;;;5056928;28;20048;-74
2022/12/22 14:27:54;;;;;;;14.38;6.22;;;8.90;99.90;;;;;;5057056;28;20450;-74
2022/12/22 14:30:23;;;;;;;16.77;4.95;;;8.70;99.90;;;;;;5074721;28;20047;-74
2022/12/22 14:32:54;;;;;;;17.02;5.13;;;8.70;99.90;;;;;;5056827;28;20058;-74
2022/12/22 14:35:19;;;;;;;12.18;4.47;;;8.90;99.90;;;;;;5056806;28;20039;-74
2022/12/22 14:38:03;;;;;;;13.32;4.75;;;8.80;99.90;;;;;;5056837;28;20041;-74
2022/12/22 14:40:36;;;;;;;9.52;4.50;;;8.90;99.90;;;;;;5057055;28;20044;-74
2022/12/22 14:43:05;;;;;;;12.57;3.95;;;8.80;99.90;;;;;;5057015;28;20040;-74
2022/12/22 14:45:32;;;;;;;11.20;3.90;;;8.90;99.90;;;;;;5056659;28;20048;-74
2022/12/22 14:47:57;;;;;;;10.00;3.83;;;8.90;99.90;;;;;;5056531;28;20040;-72
2022/12/22 14:50:28;;;;;;;10.23;4.18;;;8.90;99.90;;;;;;5074422;28;20082;-75
2022/12/22 14:52:59;;;;;;;12.90;3.75;;;9.00;99.90;;;;;;5079613;28;20044;-74
2022/12/22 14:55:38;;;;;;;10.52;3.38;;;9.10;99.90;;;;;;5074221;28;20037;-75
2022/12/22 14:58:12;;;;;;;11.13;3.38;;;9.00;99.90;;;;;;5074481;28;20048;-75
2022/12/22 15:00:43;;;;;;;10.10;3.60;;;9.00;99.90;;;;;;5079699;28;20063;-74
2022/12/22 15:03:23;;;;;;;10.20;3.72;;;9.00;99.90;;;;;;5057734;28;20449;-75
2022/12/22 15:05:50;;;;;;;6.80;3.05;;;9.10;99.90;;;;;;5055848;28;20521;-75
2022/12/22 15:08:41;;;;;;;9.05;3.17;;;9.00;99.90;;;;;;5056324;28;20051;-74
2022/12/22 15:11:14;;;;;;;8.48;2.88;;;9.00;99.90;;;;;;5056238;28;20437;-74
2022/12/22 15:13:41;;;;;;;12.00;3.65;;;8.90;99.90;;;;;;5057189;28;20047;-74
2022/12/22 15:16:12;;;;;;;8.68;2.97;;;8.90;99.90;;;;;;5055924;28;20032;-75
2022/12/22 15:18:38;;;;;;;11.88;2.78;;;9.00;99.90;;;;;;5054381;28;20406;-74
2022/12/22 15:21:04;;;;;;;10.82;4.32;;;8.90;99.90;;;;;;5082865;28;20032;-76
2022/12/22 15:23:29;;;;;;;8.40;3.40;;;8.90;99.90;;;;;;5057584;28;20093;-74
2022/12/22 15:25:55;;;;;;;10.05;3.80;;;8.90;99.90;;;;;;5073861;28;20043;-74
2022/12/22 15:28:20;;;;;;;13.40;4.43;;;8.80;99.90;;;;;;5055732;28;20386;-74
2022/12/22 15:30:46;;;;;;;10.18;4.20;;;8.80;99.90;;;;;;5058420;28;20044;-75
2022/12/22 15:33:17;;;;;;;9.07;5.03;;;8.90;99.90;;;;;;5075781;28;20040;-73
2022/12/22 15:35:43;;;;;;;11.48;5.32;;;8.80;99.90;;;;;;5061135;28;20043;-73
2022/12/22 15:38:24;;;;;;;13.00;5.05;;;8.80;99.90;;;;;;5056081;28;20127;-73
2022/12/22 15:40:50;;;;;;;12.50;5.35;;;8.80;99.90;;;;;;5055672;28;20044;-73
2022/12/22 15:43:16;;;;;;;11.88;4.72;;;8.80;99.90;;;;;;5055428;28;20174;-73
2022/12/22 15:45:42;;;;;;;11.07;4.75;;;8.90;99.90;;;;;;5055447;28;20123;-73
2022/12/22 15:48:21;;;;;;;14.80;5.00;;;8.80;99.90;;;;;;5054279;28;20048;-73
2022/12/22 15:50:46;;;;;;;10.05;5.03;;;8.90;99.90;;;;;;5053932;28;20048;-73
2022/12/22 15:53:16;;;;;;;10.77;4.80;;;8.80;99.90;;;;;;5054981;28;20044;-73
2022/12/22 15:55:47;;;;;;;10.93;4.60;;;8.90;99.90;;;;;;5038194;28;20044;-73
2022/12/22 15:58:16;;;;;;;16.65;5.50;;;8.90;99.90;;;;;;5055122;28;20071;-73
2022/12/22 16:00:42;;;;;;;6.72;4.60;;;8.90;99.90;;;;;;5055213;28;20041;-72
2022/12/22 16:03:09;;;;;;;9.23;5.30;;;8.90;99.90;;;;;;5072835;28;20036;-73
2022/12/22 16:05:35;;;;;;;14.85;4.97;;;8.70;99.90;;;;;;5055447;28;20051;-73
2022/12/22 16:08:01;;;;;;;14.82;5.30;;;8.70;99.90;;;;;;5055118;28;20049;-72
2022/12/22 16:10:29;;;;;;;12.38;5.55;;;8.70;99.90;;;;;;5055043;28;20135;-73
2022/12/22 16:13:01;;;;;;;14.77;4.95;;;8.70;99.90;;;;;;5054585;28;20578;-73
2022/12/22 16:15:29;;;;;;;16.17;4.93;;;8.80;99.90;;;;;;5055079;28;20040;-73
2022/12/22 16:17:55;;;;;;;8.93;4.63;;;8.70;99.90;;;;;;5054463;28;20086;-73
2022/12/22 16:20:20;;;;;;;6.45;4.00;;;8.70;99.90;;;;;;5072706;28;20421;-73
2022/12/22 16:22:50;;;;;;;11.35;4.80;;;8.80;99.90;;;;;;5054329;28;20562;-74
2022/12/22 16:25:19;;;;;;;13.18;4.40;;;8.80;99.90;;;;;;5054906;28;20089;-74
2022/12/22 16:27:48;;;;;;;9.10;3.90;;;8.80;99.90;;;;;;5071752;28;20051;-74
2022/12/22 16:30:24;;;;;;;10.52;4.72;;;8.60;99.90;;;;;;5072410;28;20493;-73
2022/12/22 16:32:50;;;;;;;9.18;4.63;;;8.70;99.90;;;;;;5053709;28;20086;-74
2022/12/22 16:35:19;;;;;;;15.88;6.30;;;8.60;99.90;;;;;;5037843;28;20507;-73
2022/12/22 16:37:48;;;;;;;10.88;6.10;;;8.60;99.90;;;;;;5054300;28;20588;-73